sensor_id;sensor_type;location;lat;lon;timestamp;temperature;humidity
53422;DHT22;39319;52.944;5.928;2022-08-06T00:01:45;16.10;88.70
53422;DHT22;39319;52.944;5.928;2022-08-06T00:04:11;16.10;88.80
53422;DHT22;39319;52.944;5.928;2022-08-06T00:06:39;16.00;88.80
53422;DHT22;39319;52.944;5.928;2022-08-06T00:09:05;16.00;89.10
53422;DHT22;39319;52.944;5.928;2022-08-06T00:11:31;15.90;89.40
53422;DHT22;39319;52.944;5.928;2022-08-06T00:13:57;15.90;89.70
53422;DHT22;39319;52.944;5.928;2022-08-06T00:16:23;15.80;89.80
53422;DHT22;39319;52.944;5.928;2022-08-06T00:18:49;15.70;90.00
53422;DHT22;39319;52.944;5.928;2022-08-06T00:21:15;15.70;90.10
53422;DHT22;39319;52.944;5.928;2022-08-06T00:23:40;15.70;90.20
53422;DHT22;39319;52.944;5.928;2022-08-06T00:26:06;15.60;90.30
53422;DHT22;39319;52.944;5.928;2022-08-06T00:28:32;15.60;90.40
53422;DHT22;39319;52.944;5.928;2022-08-06T00:31:02;15.60;90.40
53422;DHT22;39319;52.944;5.928;2022-08-06T00:33:29;15.50;90.50
53422;DHT22;39319;52.944;5.928;2022-08-06T00:35:55;15.50;90.60
53422;DHT22;39319;52.944;5.928;2022-08-06T00:38:21;15.50;90.50
53422;DHT22;39319;52.944;5.928;2022-08-06T00:40:48;15.50;90.50
53422;DHT22;39319;52.944;5.928;2022-08-06T00:43:14;15.50;90.60
53422;DHT22;39319;52.944;5.928;2022-08-06T00:45:40;15.40;90.80
53422;DHT22;39319;52.944;5.928;2022-08-06T00:48:06;15.40;90.90
53422;DHT22;39319;52.944;5.928;2022-08-06T00:50:32;15.40;91.30
53422;DHT22;39319;52.944;5.928;2022-08-06T00:53:02;15.40;91.10
53422;DHT22;39319;52.944;5.928;2022-08-06T00:55:31;15.30;91.10
53422;DHT22;39319;52.944;5.928;2022-08-06T00:57:57;15.30;91.10
53422;DHT22;39319;52.944;5.928;2022-08-06T01:00:23;15.20;91.30
53422;DHT22;39319;52.944;5.928;2022-08-06T01:02:49;15.20;91.30
53422;DHT22;39319;52.944;5.928;2022-08-06T01:05:17;15.20;91.40
53422;DHT22;39319;52.944;5.928;2022-08-06T01:07:43;15.20;91.40
53422;DHT22;39319;52.944;5.928;2022-08-06T01:10:09;15.10;91.50
53422;DHT22;39319;52.944;5.928;2022-08-06T01:12:35;15.10;91.40
53422;DHT22;39319;52.944;5.928;2022-08-06T01:15:04;15.10;91.50
53422;DHT22;39319;52.944;5.928;2022-08-06T01:17:34;15.10;91.50
53422;DHT22;39319;52.944;5.928;2022-08-06T01:20:29;15.00;91.50
53422;DHT22;39319;52.944;5.928;2022-08-06T01:28:33;14.90;91.80
53422;DHT22;39319;52.944;5.928;2022-08-06T01:31:08;14.80;91.90
53422;DHT22;39319;52.944;5.928;2022-08-06T01:33:41;14.80;91.80
53422;DHT22;39319;52.944;5.928;2022-08-06T01:36:11;14.70;91.90
53422;DHT22;39319;52.944;5.928;2022-08-06T01:38:44;14.70;91.90
53422;DHT22;39319;52.944;5.928;2022-08-06T01:41:12;14.70;92.00
53422;DHT22;39319;52.944;5.928;2022-08-06T01:44:01;14.70;92.10
53422;DHT22;39319;52.944;5.928;2022-08-06T01:46:27;14.70;92.20
53422;DHT22;39319;52.944;5.928;2022-08-06T01:48:56;14.70;92.30
53422;DHT22;39319;52.944;5.928;2022-08-06T01:51:24;14.60;92.20
53422;DHT22;39319;52.944;5.928;2022-08-06T01:53:52;14.60;92.30
53422;DHT22;39319;52.944;5.928;2022-08-06T01:56:24;14.60;92.30
53422;DHT22;39319;52.944;5.928;2022-08-06T01:58:53;14.60;92.40
53422;DHT22;39319;52.944;5.928;2022-08-06T02:01:19;14.50;92.40
53422;DHT22;39319;52.944;5.928;2022-08-06T02:03:51;14.50;92.40
53422;DHT22;39319;52.944;5.928;2022-08-06T02:06:24;14.50;92.50
53422;DHT22;39319;52.944;5.928;2022-08-06T02:08:52;14.50;92.50
53422;DHT22;39319;52.944;5.928;2022-08-06T02:11:19;14.40;92.70
53422;DHT22;39319;52.944;5.928;2022-08-06T02:13:45;14.40;92.70
53422;DHT22;39319;52.944;5.928;2022-08-06T02:16:13;14.40;92.80
53422;DHT22;39319;52.944;5.928;2022-08-06T02:18:43;14.40;93.00
53422;DHT22;39319;52.944;5.928;2022-08-06T02:21:14;14.40;92.80
53422;DHT22;39319;52.944;5.928;2022-08-06T02:23:41;14.30;92.70
53422;DHT22;39319;52.944;5.928;2022-08-06T02:26:08;14.30;92.80
53422;DHT22;39319;52.944;5.928;2022-08-06T02:28:36;14.30;92.80
53422;DHT22;39319;52.944;5.928;2022-08-06T02:31:03;14.30;92.80
53422;DHT22;39319;52.944;5.928;2022-08-06T02:33:29;14.30;93.00
53422;DHT22;39319;52.944;5.928;2022-08-06T02:36:04;14.30;92.90
53422;DHT22;39319;52.944;5.928;2022-08-06T02:38:44;14.20;93.10
53422;DHT22;39319;52.944;5.928;2022-08-06T02:41:30;14.20;93.00
53422;DHT22;39319;52.944;5.928;2022-08-06T02:44:02;14.10;93.30
53422;DHT22;39319;52.944;5.928;2022-08-06T02:46:35;14.10;93.10
53422;DHT22;39319;52.944;5.928;2022-08-06T02:49:09;14.10;93.10
53422;DHT22;39319;52.944;5.928;2022-08-06T02:51:40;14.00;93.10
53422;DHT22;39319;52.944;5.928;2022-08-06T02:54:42;14.00;93.20
53422;DHT22;39319;52.944;5.928;2022-08-06T02:57:08;14.00;93.40
53422;DHT22;39319;52.944;5.928;2022-08-06T02:59:44;13.90;93.70
53422;DHT22;39319;52.944;5.928;2022-08-06T03:02:12;13.90;93.70
53422;DHT22;39319;52.944;5.928;2022-08-06T03:04:42;13.90;93.90
53422;DHT22;39319;52.944;5.928;2022-08-06T03:07:10;13.90;94.00
53422;DHT22;39319;52.944;5.928;2022-08-06T03:09:40;14.00;94.20
53422;DHT22;39319;52.944;5.928;2022-08-06T03:12:09;14.00;94.30
53422;DHT22;39319;52.944;5.928;2022-08-06T03:14:37;14.10;94.40
53422;DHT22;39319;52.944;5.928;2022-08-06T03:17:06;14.10;94.50
53422;DHT22;39319;52.944;5.928;2022-08-06T03:19:40;14.10;94.70
53422;DHT22;39319;52.944;5.928;2022-08-06T03:22:07;14.20;95.00
53422;DHT22;39319;52.944;5.928;2022-08-06T03:24:35;14.30;95.60
53422;DHT22;39319;52.944;5.928;2022-08-06T03:27:03;14.40;95.90
53422;DHT22;39319;52.944;5.928;2022-08-06T03:29:30;14.50;95.90
53422;DHT22;39319;52.944;5.928;2022-08-06T03:31:58;14.50;96.20
53422;DHT22;39319;52.944;5.928;2022-08-06T03:34:25;14.60;96.30
53422;DHT22;39319;52.944;5.928;2022-08-06T03:36:52;14.60;96.40
53422;DHT22;39319;52.944;5.928;2022-08-06T03:39:18;14.70;96.60
53422;DHT22;39319;52.944;5.928;2022-08-06T03:41:45;14.80;96.90
53422;DHT22;39319;52.944;5.928;2022-08-06T03:44:12;14.80;96.80
53422;DHT22;39319;52.944;5.928;2022-08-06T03:46:48;14.80;96.80
53422;DHT22;39319;52.944;5.928;2022-08-06T03:49:25;14.90;97.00
53422;DHT22;39319;52.944;5.928;2022-08-06T03:51:53;15.00;97.00
53422;DHT22;39319;52.944;5.928;2022-08-06T03:54:25;15.10;97.60
53422;DHT22;39319;52.944;5.928;2022-08-06T03:56:52;15.20;98.00
53422;DHT22;39319;52.944;5.928;2022-08-06T03:59:20;15.20;98.10
53422;DHT22;39319;52.944;5.928;2022-08-06T04:01:48;15.20;98.50
53422;DHT22;39319;52.944;5.928;2022-08-06T04:04:15;15.30;98.50
53422;DHT22;39319;52.944;5.928;2022-08-06T04:06:42;15.30;98.90
53422;DHT22;39319;52.944;5.928;2022-08-06T04:09:12;15.30;98.90
53422;DHT22;39319;52.944;5.928;2022-08-06T04:11:38;15.30;98.70
53422;DHT22;39319;52.944;5.928;2022-08-06T04:14:05;15.30;98.70
53422;DHT22;39319;52.944;5.928;2022-08-06T04:16:32;15.20;98.70
53422;DHT22;39319;52.944;5.928;2022-08-06T04:18:59;15.20;98.70
53422;DHT22;39319;52.944;5.928;2022-08-06T04:21:27;15.20;98.60
53422;DHT22;39319;52.944;5.928;2022-08-06T04:23:54;15.20;98.70
53422;DHT22;39319;52.944;5.928;2022-08-06T04:26:24;15.10;98.50
53422;DHT22;39319;52.944;5.928;2022-08-06T04:28:53;15.10;98.50
53422;DHT22;39319;52.944;5.928;2022-08-06T04:31:21;15.10;98.50
53422;DHT22;39319;52.944;5.928;2022-08-06T04:33:49;15.00;98.50
53422;DHT22;39319;52.944;5.928;2022-08-06T04:36:16;15.00;98.70
53422;DHT22;39319;52.944;5.928;2022-08-06T04:38:42;15.00;98.50
53422;DHT22;39319;52.944;5.928;2022-08-06T04:41:09;14.90;98.70
53422;DHT22;39319;52.944;5.928;2022-08-06T04:43:36;15.00;98.90
53422;DHT22;39319;52.944;5.928;2022-08-06T04:46:02;14.90;98.90
53422;DHT22;39319;52.944;5.928;2022-08-06T04:48:28;14.90;99.00
53422;DHT22;39319;52.944;5.928;2022-08-06T04:50:54;14.90;99.20
53422;DHT22;39319;52.944;5.928;2022-08-06T04:53:20;14.90;99.20
53422;DHT22;39319;52.944;5.928;2022-08-06T04:56:07;14.90;99.30
53422;DHT22;39319;52.944;5.928;2022-08-06T04:58:34;14.90;99.30
53422;DHT22;39319;52.944;5.928;2022-08-06T05:01:00;14.90;99.40
53422;DHT22;39319;52.944;5.928;2022-08-06T05:03:26;14.90;99.50
53422;DHT22;39319;52.944;5.928;2022-08-06T05:06:05;14.90;99.40
53422;DHT22;39319;52.944;5.928;2022-08-06T05:08:37;14.90;99.40
53422;DHT22;39319;52.944;5.928;2022-08-06T05:11:15;14.90;99.40
53422;DHT22;39319;52.944;5.928;2022-08-06T05:13:44;14.90;99.50
53422;DHT22;39319;52.944;5.928;2022-08-06T05:16:34;14.90;99.50
53422;DHT22;39319;52.944;5.928;2022-08-06T05:19:05;14.90;99.50
53422;DHT22;39319;52.944;5.928;2022-08-06T05:21:36;14.90;99.70
53422;DHT22;39319;52.944;5.928;2022-08-06T05:24:03;14.90;99.90
53422;DHT22;39319;52.944;5.928;2022-08-06T05:26:29;14.90;99.80
53422;DHT22;39319;52.944;5.928;2022-08-06T05:28:55;14.90;99.80
53422;DHT22;39319;52.944;5.928;2022-08-06T05:31:36;15.00;99.80
53422;DHT22;39319;52.944;5.928;2022-08-06T05:34:03;15.00;99.90
53422;DHT22;39319;52.944;5.928;2022-08-06T05:36:30;15.00;99.90
53422;DHT22;39319;52.944;5.928;2022-08-06T05:38:56;15.10;99.90
53422;DHT22;39319;52.944;5.928;2022-08-06T05:41:22;15.10;99.90
53422;DHT22;39319;52.944;5.928;2022-08-06T05:43:48;15.10;99.90
53422;DHT22;39319;52.944;5.928;2022-08-06T05:46:19;15.10;99.90
53422;DHT22;39319;52.944;5.928;2022-08-06T05:49:12;15.20;99.90
53422;DHT22;39319;52.944;5.928;2022-08-06T05:51:50;15.20;99.90
53422;DHT22;39319;52.944;5.928;2022-08-06T05:56:46;15.20;99.90
53422;DHT22;39319;52.944;5.928;2022-08-06T05:59:25;15.20;99.90
53422;DHT22;39319;52.944;5.928;2022-08-06T06:01:51;15.20;99.90
53422;DHT22;39319;52.944;5.928;2022-08-06T06:04:17;15.30;99.90
53422;DHT22;39319;52.944;5.928;2022-08-06T06:06:44;15.30;99.90
53422;DHT22;39319;52.944;5.928;2022-08-06T06:09:10;15.30;99.90
53422;DHT22;39319;52.944;5.928;2022-08-06T06:11:40;15.30;99.90
53422;DHT22;39319;52.944;5.928;2022-08-06T06:14:44;15.40;99.90
53422;DHT22;39319;52.944;5.928;2022-08-06T06:20:32;15.50;99.90
53422;DHT22;39319;52.944;5.928;2022-08-06T06:23:20;15.60;99.90
53422;DHT22;39319;52.944;5.928;2022-08-06T06:39:16;16.10;99.80
53422;DHT22;39319;52.944;5.928;2022-08-06T06:42:06;16.10;99.90
53422;DHT22;39319;52.944;5.928;2022-08-06T06:44:42;16.20;99.40
53422;DHT22;39319;52.944;5.928;2022-08-06T06:47:17;16.30;98.60
53422;DHT22;39319;52.944;5.928;2022-08-06T06:49:58;16.40;98.60
53422;DHT22;39319;52.944;5.928;2022-08-06T06:52:28;16.50;98.10
53422;DHT22;39319;52.944;5.928;2022-08-06T06:55:24;16.50;98.00
53422;DHT22;39319;52.944;5.928;2022-08-06T06:58:46;16.60;97.80
53422;DHT22;39319;52.944;5.928;2022-08-06T07:00:44;16.60;97.40
53422;DHT22;39319;52.944;5.928;2022-08-06T07:03:11;16.60;97.40
53422;DHT22;39319;52.944;5.928;2022-08-06T07:05:40;16.70;97.20
53422;DHT22;39319;52.944;5.928;2022-08-06T07:08:09;16.70;97.20
53422;DHT22;39319;52.944;5.928;2022-08-06T07:10:38;16.80;97.10
53422;DHT22;39319;52.944;5.928;2022-08-06T07:13:05;16.80;96.80
53422;DHT22;39319;52.944;5.928;2022-08-06T07:15:32;16.90;96.60
53422;DHT22;39319;52.944;5.928;2022-08-06T07:18:01;17.00;96.20
53422;DHT22;39319;52.944;5.928;2022-08-06T07:20:30;17.00;95.60
53422;DHT22;39319;52.944;5.928;2022-08-06T07:22:59;17.10;95.40
53422;DHT22;39319;52.944;5.928;2022-08-06T07:25:26;17.10;94.70
53422;DHT22;39319;52.944;5.928;2022-08-06T07:27:53;17.10;94.80
53422;DHT22;39319;52.944;5.928;2022-08-06T07:30:20;17.20;95.20
53422;DHT22;39319;52.944;5.928;2022-08-06T07:32:47;17.20;94.90
53422;DHT22;39319;52.944;5.928;2022-08-06T07:35:16;17.20;95.40
53422;DHT22;39319;52.944;5.928;2022-08-06T07:37:54;17.30;95.00
53422;DHT22;39319;52.944;5.928;2022-08-06T07:40:30;17.40;94.00
53422;DHT22;39319;52.944;5.928;2022-08-06T07:43:06;17.40;93.70
53422;DHT22;39319;52.944;5.928;2022-08-06T07:45:37;17.50;93.90
53422;DHT22;39319;52.944;5.928;2022-08-06T07:48:07;17.50;93.90
53422;DHT22;39319;52.944;5.928;2022-08-06T07:50:33;17.50;94.00
53422;DHT22;39319;52.944;5.928;2022-08-06T07:52:59;17.50;93.80
53422;DHT22;39319;52.944;5.928;2022-08-06T07:55:26;17.70;93.10
53422;DHT22;39319;52.944;5.928;2022-08-06T07:57:54;17.80;93.10
53422;DHT22;39319;52.944;5.928;2022-08-06T08:00:21;17.90;93.10
53422;DHT22;39319;52.944;5.928;2022-08-06T08:02:49;18.00;93.20
53422;DHT22;39319;52.944;5.928;2022-08-06T08:05:36;18.10;92.90
53422;DHT22;39319;52.944;5.928;2022-08-06T08:08:20;18.30;93.10
53422;DHT22;39319;52.944;5.928;2022-08-06T08:10:47;18.40;93.30
53422;DHT22;39319;52.944;5.928;2022-08-06T08:13:13;18.60;92.10
53422;DHT22;39319;52.944;5.928;2022-08-06T08:15:45;18.70;91.50
53422;DHT22;39319;52.944;5.928;2022-08-06T08:18:14;18.90;91.40
53422;DHT22;39319;52.944;5.928;2022-08-06T08:20:42;19.00;90.20
53422;DHT22;39319;52.944;5.928;2022-08-06T08:23:11;19.00;90.20
53422;DHT22;39319;52.944;5.928;2022-08-06T08:25:38;19.00;89.80
53422;DHT22;39319;52.944;5.928;2022-08-06T08:28:05;19.00;90.70
53422;DHT22;39319;52.944;5.928;2022-08-06T08:30:31;19.10;90.20
53422;DHT22;39319;52.944;5.928;2022-08-06T08:32:57;19.10;90.40
53422;DHT22;39319;52.944;5.928;2022-08-06T08:35:22;19.10;90.70
53422;DHT22;39319;52.944;5.928;2022-08-06T08:37:48;19.10;89.80
53422;DHT22;39319;52.944;5.928;2022-08-06T08:40:14;19.00;89.00
53422;DHT22;39319;52.944;5.928;2022-08-06T08:42:43;18.90;89.20
53422;DHT22;39319;52.944;5.928;2022-08-06T08:45:11;18.90;89.30
53422;DHT22;39319;52.944;5.928;2022-08-06T08:47:44;18.90;90.40
53422;DHT22;39319;52.944;5.928;2022-08-06T08:50:11;19.00;90.60
53422;DHT22;39319;52.944;5.928;2022-08-06T08:52:39;19.10;90.40
53422;DHT22;39319;52.944;5.928;2022-08-06T08:55:11;19.10;89.20
53422;DHT22;39319;52.944;5.928;2022-08-06T08:57:36;19.30;87.40
53422;DHT22;39319;52.944;5.928;2022-08-06T09:00:04;19.40;86.40
53422;DHT22;39319;52.944;5.928;2022-08-06T09:02:31;19.40;87.20
53422;DHT22;39319;52.944;5.928;2022-08-06T09:04:58;19.50;86.30
53422;DHT22;39319;52.944;5.928;2022-08-06T09:07:24;19.70;85.20
53422;DHT22;39319;52.944;5.928;2022-08-06T09:09:50;19.80;85.60
53422;DHT22;39319;52.944;5.928;2022-08-06T09:12:17;20.00;84.40
53422;DHT22;39319;52.944;5.928;2022-08-06T09:14:44;20.20;82.90
53422;DHT22;39319;52.944;5.928;2022-08-06T09:17:11;20.40;83.10
53422;DHT22;39319;52.944;5.928;2022-08-06T09:19:38;20.50;82.20
53422;DHT22;39319;52.944;5.928;2022-08-06T09:22:04;20.70;81.40
53422;DHT22;39319;52.944;5.928;2022-08-06T09:24:29;20.80;80.50
53422;DHT22;39319;52.944;5.928;2022-08-06T09:27:12;21.00;79.10
53422;DHT22;39319;52.944;5.928;2022-08-06T09:32:13;21.30;75.50
53422;DHT22;39319;52.944;5.928;2022-08-06T09:35:01;21.50;74.50
53422;DHT22;39319;52.944;5.928;2022-08-06T09:37:30;21.70;76.00
53422;DHT22;39319;52.944;5.928;2022-08-06T09:39:56;21.90;76.80
53422;DHT22;39319;52.944;5.928;2022-08-06T09:43:01;22.00;73.80
53422;DHT22;39319;52.944;5.928;2022-08-06T09:45:27;21.90;73.30
53422;DHT22;39319;52.944;5.928;2022-08-06T09:48:05;21.60;73.50
53422;DHT22;39319;52.944;5.928;2022-08-06T09:50:42;21.40;72.70
53422;DHT22;39319;52.944;5.928;2022-08-06T09:53:09;21.20;73.30
53422;DHT22;39319;52.944;5.928;2022-08-06T09:55:35;21.30;74.40
53422;DHT22;39319;52.944;5.928;2022-08-06T09:58:01;21.40;75.30
53422;DHT22;39319;52.944;5.928;2022-08-06T10:00:34;21.70;76.10
53422;DHT22;39319;52.944;5.928;2022-08-06T10:03:05;21.90;75.30
53422;DHT22;39319;52.944;5.928;2022-08-06T10:05:34;22.20;75.20
53422;DHT22;39319;52.944;5.928;2022-08-06T10:08:04;22.50;74.00
53422;DHT22;39319;52.944;5.928;2022-08-06T10:10:50;22.70;72.90
53422;DHT22;39319;52.944;5.928;2022-08-06T10:15:47;23.10;69.10
53422;DHT22;39319;52.944;5.928;2022-08-06T10:18:37;23.20;69.20
53422;DHT22;39319;52.944;5.928;2022-08-06T10:21:11;23.10;70.20
53422;DHT22;39319;52.944;5.928;2022-08-06T10:23:40;23.20;71.00
53422;DHT22;39319;52.944;5.928;2022-08-06T10:26:09;23.00;69.90
53422;DHT22;39319;52.944;5.928;2022-08-06T10:28:38;23.10;69.30
53422;DHT22;39319;52.944;5.928;2022-08-06T10:31:08;23.30;69.50
53422;DHT22;39319;52.944;5.928;2022-08-06T10:33:57;23.50;67.60
53422;DHT22;39319;52.944;5.928;2022-08-06T10:36:30;23.70;69.30
53422;DHT22;39319;52.944;5.928;2022-08-06T10:38:56;23.90;66.60
53422;DHT22;39319;52.944;5.928;2022-08-06T10:41:23;24.10;67.40
53422;DHT22;39319;52.944;5.928;2022-08-06T10:43:50;24.30;65.10
53422;DHT22;39319;52.944;5.928;2022-08-06T10:46:18;24.50;65.10
53422;DHT22;39319;52.944;5.928;2022-08-06T10:48:46;24.60;65.00
53422;DHT22;39319;52.944;5.928;2022-08-06T10:51:15;24.80;65.00
53422;DHT22;39319;52.944;5.928;2022-08-06T10:53:44;25.00;64.40
53422;DHT22;39319;52.944;5.928;2022-08-06T10:56:16;25.10;64.40
53422;DHT22;39319;52.944;5.928;2022-08-06T10:58:44;25.30;64.90
53422;DHT22;39319;52.944;5.928;2022-08-06T11:02:00;25.50;65.40
53422;DHT22;39319;52.944;5.928;2022-08-06T11:12:52;24.10;66.40
53422;DHT22;39319;52.944;5.928;2022-08-06T11:15:21;23.90;66.30
53422;DHT22;39319;52.944;5.928;2022-08-06T11:17:55;24.10;67.40
53422;DHT22;39319;52.944;5.928;2022-08-06T11:20:34;24.30;67.80
53422;DHT22;39319;52.944;5.928;2022-08-06T11:23:22;24.60;65.50
53422;DHT22;39319;52.944;5.928;2022-08-06T11:25:50;24.90;65.70
53422;DHT22;39319;52.944;5.928;2022-08-06T11:31:06;25.30;62.40
53422;DHT22;39319;52.944;5.928;2022-08-06T11:36:08;25.50;63.20
53422;DHT22;39319;52.944;5.928;2022-08-06T11:41:19;25.70;63.80
53422;DHT22;39319;52.944;5.928;2022-08-06T11:46:40;26.00;62.80
53422;DHT22;39319;52.944;5.928;2022-08-06T11:49:17;25.80;59.40
53422;DHT22;39319;52.944;5.928;2022-08-06T11:51:44;25.40;58.00
53422;DHT22;39319;52.944;5.928;2022-08-06T11:54:14;25.20;57.20
53422;DHT22;39319;52.944;5.928;2022-08-06T12:02:15;25.00;62.40
53422;DHT22;39319;52.944;5.928;2022-08-06T12:04:43;25.10;62.70
53422;DHT22;39319;52.944;5.928;2022-08-06T12:07:24;25.20;62.00
53422;DHT22;39319;52.944;5.928;2022-08-06T12:12:43;25.60;63.50
53422;DHT22;39319;52.944;5.928;2022-08-06T12:23:00;25.40;61.40
53422;DHT22;39319;52.944;5.928;2022-08-06T12:25:34;25.40;61.50
53422;DHT22;39319;52.944;5.928;2022-08-06T12:28:02;25.50;60.20
53422;DHT22;39319;52.944;5.928;2022-08-06T12:30:45;25.70;59.70
53422;DHT22;39319;52.944;5.928;2022-08-06T12:33:12;25.80;57.50
53422;DHT22;39319;52.944;5.928;2022-08-06T12:35:56;26.00;58.00
53422;DHT22;39319;52.944;5.928;2022-08-06T12:38:26;26.10;57.80
53422;DHT22;39319;52.944;5.928;2022-08-06T12:41:07;26.30;58.80
53422;DHT22;39319;52.944;5.928;2022-08-06T12:43:35;26.40;57.90
53422;DHT22;39319;52.944;5.928;2022-08-06T12:46:06;26.50;57.60
53422;DHT22;39319;52.944;5.928;2022-08-06T12:48:33;26.40;57.40
53422;DHT22;39319;52.944;5.928;2022-08-06T12:51:11;26.50;56.60
53422;DHT22;39319;52.944;5.928;2022-08-06T12:53:50;26.50;56.00
53422;DHT22;39319;52.944;5.928;2022-08-06T12:56:18;26.50;55.30
53422;DHT22;39319;52.944;5.928;2022-08-06T12:58:44;26.60;56.40
53422;DHT22;39319;52.944;5.928;2022-08-06T13:01:14;26.70;55.90
53422;DHT22;39319;52.944;5.928;2022-08-06T13:03:43;26.80;55.50
53422;DHT22;39319;52.944;5.928;2022-08-06T13:06:11;26.90;56.70
53422;DHT22;39319;52.944;5.928;2022-08-06T13:08:38;27.00;56.80
53422;DHT22;39319;52.944;5.928;2022-08-06T13:11:04;27.00;56.50
53422;DHT22;39319;52.944;5.928;2022-08-06T13:13:38;27.10;56.50
53422;DHT22;39319;52.944;5.928;2022-08-06T13:16:13;27.10;55.50
53422;DHT22;39319;52.944;5.928;2022-08-06T13:18:40;27.10;55.40
53422;DHT22;39319;52.944;5.928;2022-08-06T13:21:21;27.10;54.50
53422;DHT22;39319;52.944;5.928;2022-08-06T13:23:51;27.10;53.70
53422;DHT22;39319;52.944;5.928;2022-08-06T13:26:26;26.90;55.20
53422;DHT22;39319;52.944;5.928;2022-08-06T13:29:06;26.70;54.20
53422;DHT22;39319;52.944;5.928;2022-08-06T13:31:37;26.40;54.10
53422;DHT22;39319;52.944;5.928;2022-08-06T13:34:05;26.10;55.60
53422;DHT22;39319;52.944;5.928;2022-08-06T13:36:33;26.00;55.10
53422;DHT22;39319;52.944;5.928;2022-08-06T13:39:17;26.00;55.70
53422;DHT22;39319;52.944;5.928;2022-08-06T13:41:43;26.10;55.60
53422;DHT22;39319;52.944;5.928;2022-08-06T13:44:29;26.20;55.20
53422;DHT22;39319;52.944;5.928;2022-08-06T13:46:55;26.30;54.10
53422;DHT22;39319;52.944;5.928;2022-08-06T13:49:21;26.40;54.80
53422;DHT22;39319;52.944;5.928;2022-08-06T13:51:47;26.40;55.50
53422;DHT22;39319;52.944;5.928;2022-08-06T13:54:13;26.50;54.70
53422;DHT22;39319;52.944;5.928;2022-08-06T13:56:39;26.60;54.80
53422;DHT22;39319;52.944;5.928;2022-08-06T13:59:04;26.60;54.70
53422;DHT22;39319;52.944;5.928;2022-08-06T14:01:30;26.70;56.30
53422;DHT22;39319;52.944;5.928;2022-08-06T14:03:56;26.80;55.90
53422;DHT22;39319;52.944;5.928;2022-08-06T14:06:23;26.80;54.80
53422;DHT22;39319;52.944;5.928;2022-08-06T14:08:49;26.90;54.40
53422;DHT22;39319;52.944;5.928;2022-08-06T14:11:15;27.00;54.80
53422;DHT22;39319;52.944;5.928;2022-08-06T14:13:41;27.00;55.20
53422;DHT22;39319;52.944;5.928;2022-08-06T14:16:07;27.10;54.20
53422;DHT22;39319;52.944;5.928;2022-08-06T14:18:33;27.10;53.80
53422;DHT22;39319;52.944;5.928;2022-08-06T14:20:58;27.20;54.70
53422;DHT22;39319;52.944;5.928;2022-08-06T14:23:25;27.20;53.40
53422;DHT22;39319;52.944;5.928;2022-08-06T14:25:51;27.20;53.60
53422;DHT22;39319;52.944;5.928;2022-08-06T14:28:17;27.20;53.80
53422;DHT22;39319;52.944;5.928;2022-08-06T14:30:43;27.20;53.90
53422;DHT22;39319;52.944;5.928;2022-08-06T14:33:09;27.30;52.10
53422;DHT22;39319;52.944;5.928;2022-08-06T14:35:38;27.30;53.00
53422;DHT22;39319;52.944;5.928;2022-08-06T14:38:05;27.20;51.80
53422;DHT22;39319;52.944;5.928;2022-08-06T14:40:31;27.20;51.80
53422;DHT22;39319;52.944;5.928;2022-08-06T14:43:16;27.30;52.30
53422;DHT22;39319;52.944;5.928;2022-08-06T14:46:00;27.30;51.80
53422;DHT22;39319;52.944;5.928;2022-08-06T14:48:26;27.30;52.40
53422;DHT22;39319;52.944;5.928;2022-08-06T14:50:52;27.30;53.80
53422;DHT22;39319;52.944;5.928;2022-08-06T14:53:18;27.30;51.40
53422;DHT22;39319;52.944;5.928;2022-08-06T14:55:43;27.30;52.10
53422;DHT22;39319;52.944;5.928;2022-08-06T14:58:10;27.40;53.20
53422;DHT22;39319;52.944;5.928;2022-08-06T15:00:37;27.40;53.70
53422;DHT22;39319;52.944;5.928;2022-08-06T15:03:03;27.50;53.20
53422;DHT22;39319;52.944;5.928;2022-08-06T15:05:28;27.50;51.60
53422;DHT22;39319;52.944;5.928;2022-08-06T15:07:54;27.50;52.00
53422;DHT22;39319;52.944;5.928;2022-08-06T15:10:20;27.50;52.70
53422;DHT22;39319;52.944;5.928;2022-08-06T15:12:45;27.50;52.30
53422;DHT22;39319;52.944;5.928;2022-08-06T15:15:12;27.60;51.70
53422;DHT22;39319;52.944;5.928;2022-08-06T15:17:38;27.50;52.40
53422;DHT22;39319;52.944;5.928;2022-08-06T15:20:04;27.60;53.30
53422;DHT22;39319;52.944;5.928;2022-08-06T15:22:32;27.70;53.40
53422;DHT22;39319;52.944;5.928;2022-08-06T15:24:58;27.70;52.00
53422;DHT22;39319;52.944;5.928;2022-08-06T15:27:24;27.80;52.20
53422;DHT22;39319;52.944;5.928;2022-08-06T15:29:59;27.70;51.60
53422;DHT22;39319;52.944;5.928;2022-08-06T15:32:25;27.60;52.20
53422;DHT22;39319;52.944;5.928;2022-08-06T15:34:51;27.50;53.80
53422;DHT22;39319;52.944;5.928;2022-08-06T15:37:18;27.50;51.20
53422;DHT22;39319;52.944;5.928;2022-08-06T15:39:47;27.30;52.30
53422;DHT22;39319;52.944;5.928;2022-08-06T15:42:12;27.30;52.60
53422;DHT22;39319;52.944;5.928;2022-08-06T15:44:38;27.20;52.50
53422;DHT22;39319;52.944;5.928;2022-08-06T15:47:04;27.10;52.30
53422;DHT22;39319;52.944;5.928;2022-08-06T15:49:30;27.00;52.70
53422;DHT22;39319;52.944;5.928;2022-08-06T15:51:59;26.90;52.20
53422;DHT22;39319;52.944;5.928;2022-08-06T15:54:25;26.80;52.70
53422;DHT22;39319;52.944;5.928;2022-08-06T15:56:51;26.70;51.90
53422;DHT22;39319;52.944;5.928;2022-08-06T15:59:16;26.60;53.70
53422;DHT22;39319;52.944;5.928;2022-08-06T16:01:42;26.50;53.40
53422;DHT22;39319;52.944;5.928;2022-08-06T16:04:08;26.40;52.10
53422;DHT22;39319;52.944;5.928;2022-08-06T16:06:34;26.30;52.10
53422;DHT22;39319;52.944;5.928;2022-08-06T16:09:00;26.20;51.70
53422;DHT22;39319;52.944;5.928;2022-08-06T16:11:26;26.00;52.80
53422;DHT22;39319;52.944;5.928;2022-08-06T16:13:52;25.90;53.90
53422;DHT22;39319;52.944;5.928;2022-08-06T16:16:18;25.80;54.10
53422;DHT22;39319;52.944;5.928;2022-08-06T16:18:45;25.70;53.00
53422;DHT22;39319;52.944;5.928;2022-08-06T16:21:10;25.60;53.50
53422;DHT22;39319;52.944;5.928;2022-08-06T16:23:37;25.50;54.80
53422;DHT22;39319;52.944;5.928;2022-08-06T16:26:02;25.50;55.90
53422;DHT22;39319;52.944;5.928;2022-08-06T16:28:31;25.50;55.20
53422;DHT22;39319;52.944;5.928;2022-08-06T16:30:57;25.40;55.20
53422;DHT22;39319;52.944;5.928;2022-08-06T16:33:23;25.40;55.60
53422;DHT22;39319;52.944;5.928;2022-08-06T16:35:49;25.30;55.70
53422;DHT22;39319;52.944;5.928;2022-08-06T16:38:17;25.30;55.60
53422;DHT22;39319;52.944;5.928;2022-08-06T16:40:42;25.20;55.10
53422;DHT22;39319;52.944;5.928;2022-08-06T16:43:08;25.20;54.90
53422;DHT22;39319;52.944;5.928;2022-08-06T16:45:34;25.00;55.20
53422;DHT22;39319;52.944;5.928;2022-08-06T16:48:03;24.90;56.40
53422;DHT22;39319;52.944;5.928;2022-08-06T16:50:30;24.80;55.70
53422;DHT22;39319;52.944;5.928;2022-08-06T16:52:55;24.80;55.80